Time,TemperatureF,DewpointF,PressureIn,WindDirection,WindDirectionDegrees,WindSpeedMPH,WindSpeedGustMPH,Humidity,HourlyPrecipIn,Conditions,Clouds,dailyrainin,SoftwareType,DateUTC
2013-04-05 00:13:00,33.4,29.0,30.18,NNW,339,7.0,10.0,84,0.00,,,0.00,weatherlink.com 1.10,2013-04-05 05:13:00,
2013-04-05 00:45:00,32.7,29.0,30.18,NNW,337,8.0,9.0,85,0.00,,,0.00,weatherlink.com 1.10,2013-04-05 05:45:00,
2013-04-05 00:59:00,32.4,28.0,30.18,NW,323,5.0,10.0,85,0.00,,,0.00,weatherlink.com 1.10,2013-04-05 05:59:00,
2013-04-05 01:14:00,32.1,28.0,30.19,NNW,347,4.0,9.0,85,0.00,,,0.00,weatherlink.com 1.10,2013-04-05 06:14:00,
2013-04-05 01:29:00,31.7,28.0,30.18,North,11,5.0,9.0,86,0.00,,,0.00,weatherlink.com 1.10,2013-04-05 06:29:00,
2013-04-05 01:44:00,31.5,28.0,30.18,NNW,348,6.0,12.0,86,0.00,,,0.00,weatherlink.com 1.10,2013-04-05 06:44:00,
2013-04-05 01:59:00,31.3,28.0,30.18,North,350,5.0,9.0,86,0.00,,,0.00,weatherlink.com 1.10,2013-04-05 06:59:00,
2013-04-05 02:29:00,31.0,27.0,30.19,North,5,4.0,7.0,86,0.00,,,0.00,weatherlink.com 1.10,2013-04-05 07:29:00,
2013-04-05 02:44:00,30.7,27.0,30.19,NNW,345,4.0,9.0,86,0.00,,,0.00,weatherlink.com 1.10,2013-04-05 07:44:00,
2013-04-05 02:59:00,30.6,27.0,30.19,NNW,346,3.0,6.0,86,0.00,,,0.00,weatherlink.com 1.10,2013-04-05 07:59:00,
2013-04-05 03:14:00,30.4,27.0,30.19,NNE,29,5.0,8.0,86,0.00,,,0.00,weatherlink.com 1.10,2013-04-05 08:14:00,
2013-04-05 03:29:00,30.1,26.0,30.20,North,9,4.0,8.0,86,0.00,,,0.00,weatherlink.com 1.10,2013-04-05 08:29:00,
2013-04-05 03:44:00,29.9,27.0,30.20,North,5,6.0,9.0,87,0.00,,,0.00,weatherlink.com 1.10,2013-04-05 08:44:00,
2013-04-05 03:59:00,29.9,27.0,30.20,NNE,13,5.0,8.0,87,0.00,,,0.00,weatherlink.com 1.10,2013-04-05 08:59:00,
2013-04-05 04:14:00,30.0,27.0,30.21,North,11,3.0,8.0,87,0.00,,,0.00,weatherlink.com 1.10,2013-04-05 09:14:00,
2013-04-05 04:29:00,29.9,27.0,30.20,NNW,348,6.0,8.0,87,0.00,,,0.00,weatherlink.com 1.10,2013-04-05 09:29:00,
2013-04-05 04:45:00,29.9,27.0,30.20,NNE,19,5.0,8.0,87,0.00,,,0.00,weatherlink.com 1.10,2013-04-05 09:45:00,
2013-04-05 04:59:00,29.9,27.0,30.20,North,360,4.0,10.0,87,0.00,,,0.00,weatherlink.com 1.10,2013-04-05 09:59:00,
2013-04-05 05:14:00,29.8,26.0,30.20,North,5,4.0,10.0,87,0.00,,,0.00,weatherlink.com 1.10,2013-04-05 10:14:00,
2013-04-05 05:29:00,29.9,27.0,30.20,NNE,12,3.0,9.0,87,0.00,,,0.00,weatherlink.com 1.10,2013-04-05 10:29:00,
2013-04-05 05:44:00,29.9,27.0,30.20,NNE,30,7.0,9.0,87,0.00,,,0.00,weatherlink.com 1.10,2013-04-05 10:44:00,
2013-04-05 06:14:00,29.3,26.0,30.20,ENE,57,3.0,5.0,88,0.00,,,0.00,weatherlink.com 1.10,2013-04-05 11:14:00,
2013-04-05 06:29:00,29.2,26.0,30.20,ENE,57,3.0,6.0,88,0.00,,,0.00,weatherlink.com 1.10,2013-04-05 11:29:00,
2013-04-05 06:44:00,29.0,26.0,30.21,NNE,32,4.0,6.0,89,0.00,,,0.00,weatherlink.com 1.10,2013-04-05 11:44:00,
2013-04-05 06:59:00,28.8,26.0,30.21,NE,55,4.0,4.0,89,0.00,,,0.00,weatherlink.com 1.10,2013-04-05 11:59:00,
2013-04-05 07:14:00,28.9,26.0,30.21,NE,48,2.0,5.0,90,0.00,,,0.00,weatherlink.com 1.10,2013-04-05 12:14:00,
2013-04-05 07:29:00,29.2,27.0,30.21,NNE,23,2.0,5.0,90,0.00,,,0.00,weatherlink.com 1.10,2013-04-05 12:29:00,
2013-04-05 07:44:00,30.2,27.0,30.21,NE,56,3.0,7.0,88,0.00,,,0.00,weatherlink.com 1.10,2013-04-05 12:44:00,
2013-04-05 07:59:00,31.4,28.0,30.21,NE,56,4.0,5.0,86,0.00,,,0.00,weatherlink.com 1.10,2013-04-05 12:59:00,
2013-04-05 08:14:00,32.5,28.0,30.21,ENE,78,3.0,8.0,84,0.00,,,0.00,weatherlink.com 1.10,2013-04-05 13:14:00,
2013-04-05 08:44:00,34.7,28.0,30.21,East,94,3.0,14.0,77,0.00,,,0.00,weatherlink.com 1.10,2013-04-05 13:44:00,
2013-04-05 08:59:00,36.1,28.0,30.20,ESE,106,5.0,11.0,73,0.00,,,0.00,weatherlink.com 1.10,2013-04-05 13:59:00,
2013-04-05 09:15:00,36.2,28.0,30.19,East,99,10.0,11.0,71,0.00,,,0.00,weatherlink.com 1.10,2013-04-05 14:15:00,
2013-04-05 09:30:00,37.3,29.0,30.19,ESE,121,8.0,11.0,71,0.00,,,0.00,weatherlink.com 1.10,2013-04-05 14:30:00,
2013-04-05 09:45:00,38.1,28.0,30.20,ESE,109,5.0,10.0,66,0.00,,,0.00,weatherlink.com 1.10,2013-04-05 14:45:00,
2013-04-05 10:15:00,39.3,27.0,30.20,South,169,3.0,10.0,62,0.00,,,0.00,weatherlink.com 1.10,2013-04-05 15:15:00,
2013-04-05 10:30:00,40.6,28.0,30.20,SE,137,5.0,9.0,60,0.00,,,0.00,weatherlink.com 1.10,2013-04-05 15:30:00,
2013-04-05 10:45:00,41.1,27.0,30.20,SE,130,3.0,10.0,57,0.00,,,0.00,weatherlink.com 1.10,2013-04-05 15:45:00,
2013-04-05 11:00:00,42.5,28.0,30.19,SSE,148,5.0,9.0,57,0.00,,,0.00,weatherlink.com 1.10,2013-04-05 16:00:00,
2013-04-05 11:15:00,42.5,28.0,30.18,SE,142,6.0,10.0,57,0.00,,,0.00,weatherlink.com 1.10,2013-04-05 16:15:00,
2013-04-05 11:30:00,42.8,28.0,30.19,SSE,153,4.0,12.0,57,0.00,,,0.00,weatherlink.com 1.10,2013-04-05 16:30:00,
2013-04-05 11:45:00,42.7,29.0,30.17,SSE,168,5.0,11.0,58,0.00,,,0.00,weatherlink.com 1.10,2013-04-05 16:45:00,
2013-04-05 12:00:00,43.6,30.0,30.16,SE,143,5.0,12.0,58,0.00,,,0.00,weatherlink.com 1.10,2013-04-05 17:00:00,
2013-04-05 12:15:00,44.5,30.0,30.15,East,95,3.0,10.0,58,0.00,,,0.00,weatherlink.com 1.10,2013-04-05 17:15:00,
2013-04-05 12:30:00,44.6,30.0,30.14,SSE,157,4.0,11.0,57,0.00,,,0.00,weatherlink.com 1.10,2013-04-05 17:30:00,
2013-04-05 12:45:00,44.3,30.0,30.13,SSE,161,9.0,11.0,57,0.00,,,0.00,weatherlink.com 1.10,2013-04-05 17:45:00,
2013-04-05 13:00:00,44.7,31.0,30.12,South,170,5.0,10.0,58,0.00,,,0.00,weatherlink.com 1.10,2013-04-05 18:00:00,
2013-04-05 13:15:00,45.6,31.0,30.12,SSE,155,7.0,10.0,57,0.00,,,0.00,weatherlink.com 1.10,2013-04-05 18:15:00,
2013-04-05 13:30:00,45.9,30.0,30.12,SE,145,6.0,11.0,54,0.00,,,0.00,weatherlink.com 1.10,2013-04-05 18:30:00,
2013-04-05 13:45:00,46.0,30.0,30.11,South,178,3.0,14.0,55,0.00,,,0.00,weatherlink.com 1.10,2013-04-05 18:45:00,
2013-04-05 14:00:00,46.8,31.0,30.10,South,172,6.0,11.0,54,0.00,,,0.00,weatherlink.com 1.10,2013-04-05 19:00:00,
2013-04-05 14:15:00,47.3,32.0,30.09,South,179,4.0,10.0,55,0.00,,,0.00,weatherlink.com 1.10,2013-04-05 19:15:00,
2013-04-05 14:30:00,47.9,32.0,30.08,SE,130,6.0,11.0,54,0.00,,,0.00,weatherlink.com 1.10,2013-04-05 19:30:00,
2013-04-05 14:45:00,48.3,32.0,30.07,SE,127,9.0,14.0,53,0.00,,,0.00,weatherlink.com 1.10,2013-04-05 19:45:00,
2013-04-05 15:00:00,48.5,31.0,30.06,South,172,8.0,15.0,52,0.00,,,0.00,weatherlink.com 1.10,2013-04-05 20:00:00,
2013-04-05 15:15:00,48.6,32.0,30.05,SSE,155,4.0,13.0,53,0.00,,,0.00,weatherlink.com 1.10,2013-04-05 20:15:00,
2013-04-05 15:46:00,51.2,33.0,30.02,SE,124,5.0,16.0,51,0.00,,,0.00,weatherlink.com 1.10,2013-04-05 20:46:00,
2013-04-05 16:01:00,51.0,32.0,30.02,ESE,111,9.0,12.0,49,0.00,,,0.00,weatherlink.com 1.10,2013-04-05 21:01:00,
2013-04-05 16:46:00,51.9,34.0,29.98,SSE,162,9.0,14.0,50,0.00,,,0.00,weatherlink.com 1.10,2013-04-05 21:46:00,
2013-04-05 17:01:00,52.4,34.0,29.96,ESE,115,7.0,14.0,49,0.00,,,0.00,weatherlink.com 1.10,2013-04-05 22:01:00,
2013-04-05 17:16:00,52.2,33.0,29.95,South,170,8.0,18.0,49,0.00,,,0.00,weatherlink.com 1.10,2013-04-05 22:16:00,
2013-04-05 17:31:00,51.8,34.0,29.94,SSE,148,9.0,13.0,51,0.00,,,0.00,weatherlink.com 1.10,2013-04-05 22:31:00,
2013-04-05 17:46:00,51.7,34.0,29.93,SSE,156,11.0,15.0,51,0.00,,,0.00,weatherlink.com 1.10,2013-04-05 22:46:00,
2013-04-05 18:01:00,51.8,35.0,29.92,SSE,156,3.0,13.0,53,0.00,,,0.00,weatherlink.com 1.10,2013-04-05 23:01:00,
2013-04-05 18:16:00,51.9,34.0,29.92,ESE,121,3.0,11.0,51,0.00,,,0.00,weatherlink.com 1.10,2013-04-05 23:16:00,
2013-04-05 18:31:00,51.6,35.0,29.91,SSE,156,3.0,11.0,53,0.00,,,0.00,weatherlink.com 1.10,2013-04-05 23:31:00,
2013-04-05 19:01:00,50.8,34.0,29.89,South,186,4.0,12.0,54,0.00,,,0.00,weatherlink.com 1.10,2013-04-06 00:01:00,
2013-04-05 19:16:00,50.5,34.0,29.89,ESE,117,4.0,14.0,54,0.00,,,0.00,weatherlink.com 1.10,2013-04-06 00:16:00,
2013-04-05 19:31:00,49.9,35.0,29.89,SSW,192,5.0,15.0,58,0.00,,,0.00,weatherlink.com 1.10,2013-04-06 00:31:00,
2013-04-05 19:46:00,49.2,35.0,29.88,South,185,5.0,12.0,59,0.00,,,0.00,weatherlink.com 1.10,2013-04-06 00:46:00,
2013-04-05 20:01:00,48.7,35.0,29.88,SSE,151,4.0,13.0,60,0.00,,,0.00,weatherlink.com 1.10,2013-04-06 01:01:00,
2013-04-05 20:16:00,47.9,35.0,29.87,SSE,162,5.0,11.0,61,0.00,,,0.00,weatherlink.com 1.10,2013-04-06 01:16:00,
2013-04-05 20:31:00,47.4,34.0,29.87,SE,139,6.0,17.0,61,0.00,,,0.00,weatherlink.com 1.10,2013-04-06 01:31:00,
2013-04-05 20:46:00,46.9,34.0,29.87,SE,124,3.0,15.0,62,0.00,,,0.00,weatherlink.com 1.10,2013-04-06 01:46:00,
2013-04-05 21:01:00,46.5,34.0,29.86,SE,145,7.0,15.0,63,0.00,,,0.00,weatherlink.com 1.10,2013-04-06 02:01:00,
2013-04-05 21:16:00,46.1,34.0,29.86,ESE,109,5.0,13.0,63,0.00,,,0.00,weatherlink.com 1.10,2013-04-06 02:16:00,
2013-04-05 21:31:00,45.8,34.0,29.86,WNW,292,3.0,20.0,63,0.00,,,0.00,weatherlink.com 1.10,2013-04-06 02:31:00,
2013-04-05 21:46:00,45.6,33.0,29.86,SE,126,5.0,13.0,62,0.00,,,0.00,weatherlink.com 1.10,2013-04-06 02:46:00,
2013-04-05 22:01:00,46.0,33.0,29.85,South,175,7.0,16.0,60,0.00,,,0.00,weatherlink.com 1.10,2013-04-06 03:01:00,
2013-04-05 22:16:00,45.3,33.0,29.85,SE,124,6.0,14.0,62,0.00,,,0.00,weatherlink.com 1.10,2013-04-06 03:16:00,
2013-04-05 22:31:00,44.7,33.0,29.84,SE,127,5.0,11.0,64,0.00,,,0.00,weatherlink.com 1.10,2013-04-06 03:31:00,
2013-04-05 22:46:00,45.6,32.0,29.83,SSE,163,3.0,13.0,60,0.00,,,0.00,weatherlink.com 1.10,2013-04-06 03:46:00,
2013-04-05 23:02:00,46.3,32.0,29.82,SSE,168,5.0,14.0,58,0.00,,,0.00,weatherlink.com 1.10,2013-04-06 04:02:00,
2013-04-05 23:16:00,45.8,32.0,29.81,SSE,153,5.0,12.0,59,0.00,,,0.00,weatherlink.com 1.10,2013-04-06 04:16:00,
2013-04-05 23:32:00,45.8,32.0,29.81,South,173,4.0,12.0,60,0.00,,,0.00,weatherlink.com 1.10,2013-04-06 04:32:00,
2013-04-05 23:47:00,45.2,33.0,29.80,South,175,6.0,13.0,62,0.00,,,0.00,weatherlink.com 1.10,2013-04-06 04:47:00,